createdAt,value
2018-02-22T00:00:40.015Z,40.51
2018-02-22T00:01:40.045Z,40.6
2018-02-22T00:02:40.025Z,40.56
2018-02-22T00:03:40.001Z,40.58
2018-02-22T00:04:40.009Z,40.55
2018-02-22T00:05:40.035Z,40.57
2018-02-22T00:06:40.058Z,40.58
2018-02-22T00:07:40.002Z,40.59
2018-02-22T00:08:40.033Z,40.59
2018-02-22T00:09:40.022Z,40.58
2018-02-22T00:10:40.003Z,40.57
2018-02-22T00:11:40.044Z,40.57
2018-02-22T00:12:40.019Z,40.57
2018-02-22T00:13:40.003Z,40.51
2018-02-22T00:14:40.007Z,40.61
2018-02-22T00:15:40.033Z,40.54
2018-02-22T00:16:40.003Z,40.54
2018-02-22T00:17:40.034Z,40.6
2018-02-22T00:18:40.024Z,40.56
2018-02-22T00:19:40.003Z,40.6
2018-02-22T00:20:40.028Z,40.47
2018-02-22T00:21:40.026Z,40.58
2018-02-22T00:22:40.033Z,40.55
2018-02-22T00:23:40.029Z,40.55
2018-02-22T00:24:40.012Z,40.53
2018-02-22T00:25:40.027Z,40.58
2018-02-22T00:26:40.009Z,40.55
2018-02-22T00:27:40.013Z,40.5
2018-02-22T00:28:40.028Z,40.59
2018-02-22T00:29:39.981Z,40.52
2018-02-22T00:30:40.141Z,40.58
2018-02-22T00:31:40.014Z,40.5
2018-02-22T00:32:39.993Z,40.57
2018-02-22T00:33:40.018Z,40.56
2018-02-22T00:34:40.056Z,40.55
2018-02-22T00:35:39.995Z,40.54
2018-02-22T00:36:40.003Z,40.56
2018-02-22T00:37:40.016Z,40.63
2018-02-22T00:38:40.112Z,40.52
2018-02-22T00:39:40.010Z,40.54
2018-02-22T00:40:40.008Z,40.52
2018-02-22T00:41:40.011Z,40.53
2018-02-22T00:42:40.051Z,40.62
2018-02-22T00:43:40.007Z,40.55
2018-02-22T00:44:39.995Z,40.57
2018-02-22T00:45:39.997Z,40.53
2018-02-22T00:46:40.070Z,40.58
2018-02-22T00:47:40.013Z,40.59
2018-02-22T00:48:39.999Z,40.55
2018-02-22T00:49:40.009Z,40.5
2018-02-22T00:50:40.016Z,40.63
2018-02-22T00:51:40.004Z,40.59
2018-02-22T00:52:39.999Z,40.59
2018-02-22T00:53:40.072Z,40.57
2018-02-22T00:54:40.002Z,40.63
2018-02-22T00:55:39.986Z,40.59
2018-02-22T00:56:40.111Z,40.57
2018-02-22T00:57:40.045Z,40.56
2018-02-22T00:58:39.984Z,40.54
2018-02-22T00:59:40.019Z,40.55
2018-02-22T01:00:39.981Z,40.53
2018-02-22T01:01:39.988Z,40.57
2018-02-22T01:02:40.005Z,40.53
2018-02-22T01:03:39.992Z,40.56
2018-02-22T01:04:40.014Z,40.56
2018-02-22T01:05:40.011Z,40.56
2018-02-22T01:06:39.999Z,40.53
2018-02-22T01:07:39.997Z,40.53
2018-02-22T01:08:39.982Z,40.55
2018-02-22T01:09:40.044Z,40.58
2018-02-22T01:10:39.991Z,40.6
2018-02-22T01:11:39.977Z,40.55
2018-02-22T01:12:39.990Z,40.6
2018-02-22T01:13:40.053Z,40.61
2018-02-22T01:14:40.298Z,40.57
2018-02-22T01:15:39.997Z,40.54
2018-02-22T01:16:40.010Z,40.57
2018-02-22T01:17:40.006Z,40.56
2018-02-22T01:18:39.989Z,40.51
2018-02-22T01:19:40.258Z,40.54
2018-02-22T01:20:39.975Z,40.59
2018-02-22T01:21:39.983Z,40.61
2018-02-22T01:22:40.009Z,40.59
2018-02-22T01:23:40.011Z,40.59
2018-02-22T01:24:40.011Z,40.5
2018-02-22T01:25:39.985Z,40.59
2018-02-22T01:26:39.988Z,40.52
2018-02-22T01:27:39.987Z,40.48
2018-02-22T01:28:39.987Z,40.54
2018-02-22T01:29:40.002Z,40.54
2018-02-22T01:30:39.992Z,40.56
2018-02-22T01:31:39.975Z,40.55
2018-02-22T01:32:39.984Z,40.47
2018-02-22T01:33:39.981Z,40.55
2018-02-22T01:34:40.031Z,40.55
2018-02-22T01:35:39.977Z,40.63
2018-02-22T01:36:39.982Z,40.63
2018-02-22T01:37:39.975Z,40.5
2018-02-22T01:38:39.979Z,40.59
2018-02-22T01:39:39.988Z,40.56
2018-02-22T01:40:39.995Z,40.57
2018-02-22T01:41:39.973Z,40.56
2018-02-22T01:42:39.992Z,40.52
2018-02-22T01:43:39.964Z,40.57
2018-02-22T01:44:40.007Z,40.53
2018-02-22T01:45:40.005Z,40.57
2018-02-22T01:46:39.971Z,40.58
2018-02-22T01:47:39.979Z,40.58
2018-02-22T01:48:39.971Z,40.54
2018-02-22T01:49:40.008Z,40.53
2018-02-22T01:50:40.007Z,40.47
2018-02-22T01:51:39.972Z,40.53
2018-02-22T01:52:39.978Z,40.54
2018-02-22T01:53:39.976Z,40.58
2018-02-22T01:54:40.246Z,40.51
2018-02-22T01:55:39.980Z,40.54
2018-02-22T01:56:39.969Z,40.57
2018-02-22T01:57:39.981Z,40.53
2018-02-22T01:58:39.992Z,40.56
2018-02-22T01:59:40.092Z,40.62
2018-02-22T02:00:39.985Z,40.54
2018-02-22T02:01:39.971Z,40.49
2018-02-22T02:02:39.980Z,40.51
2018-02-22T02:03:39.990Z,40.55
2018-02-22T02:04:39.975Z,40.51
2018-02-22T02:05:39.970Z,40.56
2018-02-22T02:06:39.962Z,40.52
2018-02-22T02:07:39.962Z,40.58
2018-02-22T02:08:39.977Z,40.59
2018-02-22T02:09:40.005Z,40.63
2018-02-22T02:10:39.987Z,40.55
2018-02-22T02:11:39.979Z,40.5
2018-02-22T02:12:39.962Z,40.57
2018-02-22T02:13:39.968Z,40.59
2018-02-22T02:14:39.991Z,40.6
2018-02-22T02:15:39.966Z,40.59
2018-02-22T02:16:39.944Z,40.54
2018-02-22T02:17:39.986Z,40.52
2018-02-22T02:18:39.983Z,40.48
2018-02-22T02:19:39.971Z,40.52
2018-02-22T02:20:40.195Z,40.57
2018-02-22T02:21:39.977Z,40.56
2018-02-22T02:22:39.975Z,40.54
2018-02-22T02:23:39.985Z,40.52
2018-02-22T02:24:39.969Z,40.51
2018-02-22T02:25:39.965Z,40.51
2018-02-22T02:26:39.974Z,40.58
2018-02-22T02:27:39.960Z,40.56
2018-02-22T02:28:39.982Z,40.47
2018-02-22T02:29:39.965Z,40.58
2018-02-22T02:30:39.992Z,40.47
2018-02-22T02:31:39.968Z,40.48
2018-02-22T02:32:39.968Z,40.56
2018-02-22T02:33:39.960Z,40.56
2018-02-22T02:35:39.986Z,40.57
2018-02-22T02:36:39.992Z,40.49
2018-02-22T02:37:39.984Z,40.59
2018-02-22T02:38:39.982Z,40.52
2018-02-22T02:39:40.004Z,40.57
2018-02-22T02:40:39.989Z,40.49
2018-02-22T02:41:39.975Z,40.53
2018-02-22T02:42:40.020Z,40.63
2018-02-22T02:43:39.973Z,40.59
2018-02-22T02:44:39.988Z,40.46
2018-02-22T02:45:39.951Z,40.47
2018-02-22T02:46:40.020Z,40.49
2018-02-22T02:47:39.968Z,40.5
2018-02-22T02:48:39.962Z,40.53
2018-02-22T02:49:39.993Z,40.5
2018-02-22T02:50:39.972Z,40.56
2018-02-22T02:51:39.983Z,40.54
2018-02-22T02:52:39.971Z,40.55
2018-02-22T02:53:39.999Z,40.55
2018-02-22T02:54:39.978Z,40.59
2018-02-22T02:55:39.958Z,40.51
2018-02-22T02:56:39.994Z,40.56
2018-02-22T02:57:40.094Z,40.61
2018-02-22T02:58:39.979Z,40.56
2018-02-22T02:59:39.994Z,40.53
2018-02-22T03:00:39.968Z,40.54
2018-02-22T03:01:39.955Z,40.61
2018-02-22T03:02:39.982Z,40.58
2018-02-22T03:03:39.969Z,40.55
2018-02-22T03:04:40.006Z,40.54
2018-02-22T03:05:39.960Z,40.58
2018-02-22T03:06:39.962Z,40.56
2018-02-22T03:07:39.945Z,40.53
2018-02-22T03:08:39.953Z,40.53
2018-02-22T03:09:39.962Z,40.53
2018-02-22T03:10:39.949Z,40.57
2018-02-22T03:11:39.954Z,40.57
2018-02-22T03:12:39.961Z,40.57
2018-02-22T03:13:39.950Z,40.54
2018-02-22T03:14:39.952Z,40.53
2018-02-22T03:15:39.958Z,40.52
2018-02-22T03:16:39.968Z,40.58
2018-02-22T03:17:39.933Z,40.58
2018-02-22T03:18:39.992Z,40.56
2018-02-22T03:19:39.948Z,40.49
2018-02-22T03:20:39.957Z,40.56
2018-02-22T03:21:39.935Z,40.54
2018-02-22T03:22:39.975Z,40.51
2018-02-22T03:23:39.948Z,40.49
2018-02-22T03:24:39.953Z,40.53
2018-02-22T03:25:39.950Z,40.49
2018-02-22T03:26:39.939Z,40.54
2018-02-22T03:27:39.954Z,40.48
2018-02-22T03:28:39.950Z,40.52
2018-02-22T03:29:39.952Z,40.4
2018-02-22T03:30:39.974Z,40.49
2018-02-22T03:31:39.969Z,40.5
2018-02-22T03:32:39.948Z,40.46
2018-02-22T03:33:39.943Z,40.49
2018-02-22T03:34:39.958Z,40.51
2018-02-22T03:35:39.932Z,40.53
2018-02-22T03:36:39.952Z,40.46
2018-02-22T03:37:39.948Z,40.45
2018-02-22T03:38:39.937Z,40.5
2018-02-22T03:39:40.004Z,40.47
2018-02-22T03:40:39.928Z,40.47
2018-02-22T03:41:39.954Z,40.52
2018-02-22T03:42:39.935Z,40.49
2018-02-22T03:43:39.941Z,40.44
2018-02-22T03:44:39.950Z,40.52
2018-02-22T03:45:39.948Z,40.51
2018-02-22T03:46:39.946Z,40.47
2018-02-22T03:47:39.941Z,40.5
2018-02-22T03:48:39.954Z,40.46
2018-02-22T03:49:39.941Z,40.41
2018-02-22T03:50:39.957Z,40.45
2018-02-22T03:51:39.928Z,40.38
2018-02-22T03:52:39.935Z,40.4
2018-02-22T03:53:39.927Z,40.41
2018-02-22T03:54:39.937Z,40.41
2018-02-22T03:55:39.926Z,40.41
2018-02-22T03:56:39.939Z,40.43
2018-02-22T03:57:39.937Z,40.43
2018-02-22T03:58:39.939Z,40.46
2018-02-22T03:59:39.968Z,40.46
2018-02-22T04:00:39.961Z,40.43
2018-02-22T04:01:40.220Z,40.51
2018-02-22T04:02:39.922Z,40.46
2018-02-22T04:03:39.930Z,40.44
2018-02-22T04:04:39.968Z,40.44
2018-02-22T04:05:39.929Z,40.39
2018-02-22T04:06:39.947Z,40.44
2018-02-22T04:07:39.939Z,40.5
2018-02-22T04:08:39.939Z,40.4
2018-02-22T04:09:39.933Z,40.45
2018-02-22T04:10:39.920Z,40.4
2018-02-22T04:11:39.935Z,40.4
2018-02-22T04:12:39.935Z,40.47
2018-02-22T04:13:39.964Z,40.44
2018-02-22T04:14:39.910Z,40.39
2018-02-22T04:15:39.943Z,40.44
2018-02-22T04:16:39.924Z,40.39
2018-02-22T04:17:39.927Z,40.43
2018-02-22T04:18:39.931Z,40.44
2018-02-22T04:19:39.948Z,40.46
2018-02-22T04:20:39.920Z,40.41
2018-02-22T04:21:39.935Z,40.48
2018-02-22T04:22:39.967Z,40.45
2018-02-22T04:23:39.917Z,40.47
2018-02-22T04:24:39.938Z,40.41
2018-02-22T04:25:39.925Z,40.33
2018-02-22T04:26:39.936Z,40.4
2018-02-22T04:27:39.918Z,40.37
2018-02-22T04:28:39.923Z,40.41
2018-02-22T04:29:39.947Z,40.45
2018-02-22T04:30:39.925Z,40.41
2018-02-22T04:31:39.946Z,40.45
2018-02-22T04:32:39.960Z,40.45
2018-02-22T04:33:39.939Z,40.46
2018-02-22T04:34:39.798Z,40.47
2018-02-22T04:35:39.912Z,40.43
2018-02-22T04:36:39.913Z,40.44
2018-02-22T04:37:39.918Z,40.45
2018-02-22T04:38:39.926Z,40.43
2018-02-22T04:39:39.950Z,40.49
2018-02-22T04:40:39.957Z,40.48
2018-02-22T04:41:39.922Z,40.47
2018-02-22T04:42:39.917Z,40.42
2018-02-22T04:43:39.923Z,40.39
2018-02-22T04:44:39.923Z,40.43
2018-02-22T04:45:39.923Z,40.44
2018-02-22T04:46:39.919Z,40.43
2018-02-22T04:47:39.922Z,40.46
2018-02-22T04:48:39.943Z,40.42
2018-02-22T04:49:39.904Z,40.38
2018-02-22T04:50:39.969Z,40.37
2018-02-22T04:51:39.970Z,40.34
2018-02-22T04:52:39.918Z,40.37
2018-02-22T04:53:39.968Z,40.42
2018-02-22T04:54:39.942Z,40.38
2018-02-22T04:55:39.933Z,40.37
2018-02-22T04:56:39.912Z,40.42
2018-02-22T04:57:39.932Z,40.4
2018-02-22T04:58:40.010Z,40.4
2018-02-22T04:59:39.920Z,40.34
2018-02-22T05:00:39.905Z,40.41
2018-02-22T05:01:39.928Z,40.33
2018-02-22T05:02:39.920Z,40.37
2018-02-22T05:03:39.918Z,40.42
2018-02-22T05:04:39.923Z,40.43
2018-02-22T05:05:39.934Z,40.49
2018-02-22T05:06:39.944Z,40.49
2018-02-22T05:07:39.923Z,40.45
2018-02-22T05:08:39.911Z,40.53
2018-02-22T05:09:39.974Z,40.53
2018-02-22T05:10:39.918Z,40.51
2018-02-22T05:11:39.933Z,40.61
2018-02-22T05:12:39.909Z,40.69
2018-02-22T05:13:39.907Z,40.8
2018-02-22T05:14:39.909Z,40.8
2018-02-22T05:15:39.915Z,40.87
2018-02-22T05:16:39.899Z,40.87
2018-02-22T05:17:39.935Z,40.82
2018-02-22T05:18:39.932Z,40.9
2018-02-22T05:19:39.900Z,40.94
2018-02-22T05:20:39.908Z,40.9
2018-02-22T05:21:39.904Z,40.89
2018-02-22T05:22:39.942Z,40.95
2018-02-22T05:23:39.909Z,41.01
2018-02-22T05:24:39.936Z,40.93
2018-02-22T05:25:39.923Z,40.98
2018-02-22T05:26:39.897Z,40.88
2018-02-22T05:27:39.908Z,40.94
2018-02-22T05:28:39.902Z,40.9
2018-02-22T05:29:39.897Z,40.88
2018-02-22T05:30:39.890Z,40.89
2018-02-22T05:31:39.899Z,40.89
2018-02-22T05:32:39.902Z,40.83
2018-02-22T05:33:39.922Z,40.83
2018-02-22T05:34:39.890Z,40.79
2018-02-22T05:35:39.896Z,40.79
2018-02-22T05:36:39.894Z,40.82
2018-02-22T05:37:39.906Z,40.78
2018-02-22T05:38:39.949Z,40.8
2018-02-22T05:39:39.921Z,40.81
2018-02-22T05:40:39.912Z,40.76
2018-02-22T05:41:39.907Z,40.79
2018-02-22T05:42:39.892Z,40.83
2018-02-22T05:43:39.929Z,40.73
2018-02-22T05:44:39.893Z,40.83
2018-02-22T05:45:39.890Z,40.78
2018-02-22T05:46:39.927Z,40.75
2018-02-22T05:47:39.913Z,40.76
2018-02-22T05:48:39.907Z,40.81
2018-02-22T05:49:39.922Z,40.78
2018-02-22T05:50:39.911Z,40.78
2018-02-22T05:51:39.885Z,40.82
2018-02-22T05:52:39.885Z,40.78
2018-02-22T05:53:39.891Z,40.76
2018-02-22T05:54:41.850Z,40.81
2018-02-22T05:55:39.898Z,40.84
2018-02-22T05:56:39.897Z,40.79
2018-02-22T05:57:39.966Z,40.77
2018-02-22T05:58:39.904Z,40.8
2018-02-22T05:59:39.953Z,40.78
2018-02-22T06:00:39.914Z,40.78
2018-02-22T06:01:39.915Z,40.78
2018-02-22T06:02:39.904Z,40.81
2018-02-22T06:03:39.912Z,40.79
2018-02-22T06:04:39.926Z,40.74
2018-02-22T06:05:39.902Z,40.76
2018-02-22T06:06:39.903Z,40.75
2018-02-22T06:07:39.880Z,40.76
2018-02-22T06:08:39.890Z,40.78
2018-02-22T06:09:39.888Z,40.63
2018-02-22T06:10:39.896Z,40.75
2018-02-22T06:11:39.901Z,40.7
2018-02-22T06:12:39.910Z,40.73
2018-02-22T06:13:39.898Z,40.78
2018-02-22T06:14:39.894Z,40.74
2018-02-22T06:15:39.924Z,40.77
2018-02-22T06:16:39.932Z,40.73
2018-02-22T06:17:39.890Z,40.72
2018-02-22T06:18:39.981Z,40.67
2018-02-22T06:19:39.871Z,40.71
2018-02-22T06:20:39.908Z,40.71
2018-02-22T06:21:39.875Z,40.63
2018-02-22T06:22:39.890Z,40.71
2018-02-22T06:23:39.890Z,40.61
2018-02-22T06:24:39.881Z,40.69
2018-02-22T06:25:39.888Z,40.69
2018-02-22T06:26:39.879Z,40.69
2018-02-22T06:27:39.891Z,40.69
2018-02-22T06:28:39.868Z,40.69
2018-02-22T06:29:39.926Z,40.68
2018-02-22T06:30:39.866Z,40.72
2018-02-22T06:31:39.888Z,40.65
2018-02-22T06:32:39.888Z,40.63
2018-02-22T06:33:39.908Z,40.68
2018-02-22T06:34:39.882Z,40.68
2018-02-22T06:35:39.947Z,40.68
2018-02-22T06:36:39.875Z,40.67
2018-02-22T06:37:39.861Z,40.68
2018-02-22T06:38:39.873Z,40.58
2018-02-22T06:39:39.898Z,40.63
2018-02-22T06:40:39.963Z,40.61
2018-02-22T06:41:39.883Z,40.7
2018-02-22T06:42:39.868Z,40.56
2018-02-22T06:43:39.991Z,40.62
2018-02-22T06:44:39.888Z,40.61
2018-02-22T06:45:39.885Z,40.62
2018-02-22T06:46:39.876Z,40.61
2018-02-22T06:47:39.883Z,40.45
2018-02-22T06:48:39.890Z,40.6
2018-02-22T06:49:39.903Z,40.61
2018-02-22T06:50:39.883Z,40.62
2018-02-22T06:51:39.974Z,40.6
2018-02-22T06:52:39.887Z,40.58
2018-02-22T06:53:39.874Z,40.6
2018-02-22T06:54:39.882Z,40.62
2018-02-22T06:55:39.866Z,40.55
2018-02-22T06:56:39.895Z,40.59
2018-02-22T06:57:39.880Z,40.55
2018-02-22T06:58:39.901Z,40.46
2018-02-22T06:59:39.975Z,40.6
2018-02-22T07:00:39.879Z,40.57
2018-02-22T07:01:39.914Z,40.42
2018-02-22T07:02:39.880Z,40.54
2018-02-22T07:03:39.863Z,40.45
2018-02-22T07:04:39.885Z,40.53
2018-02-22T07:05:39.898Z,40.52
2018-02-22T07:06:39.872Z,40.48
2018-02-22T07:07:39.973Z,40.48
2018-02-22T07:08:39.899Z,40.51
2018-02-22T07:09:39.858Z,40.51
2018-02-22T07:10:39.906Z,40.45
2018-02-22T07:11:39.877Z,40.52
2018-02-22T07:12:39.859Z,40.48
2018-02-22T07:13:39.942Z,40.4
2018-02-22T07:14:39.887Z,40.47
2018-02-22T07:15:39.923Z,40.47
2018-02-22T07:16:39.864Z,40.45
2018-02-22T07:17:39.887Z,40.4
2018-02-22T07:18:39.875Z,40.48
2018-02-22T07:19:39.891Z,40.45
2018-02-22T07:20:39.892Z,40.44
2018-02-22T07:21:39.852Z,40.51
2018-02-22T07:22:39.861Z,40.43
2018-02-22T07:23:39.857Z,40.42
2018-02-22T07:24:39.882Z,40.39
2018-02-22T07:25:39.867Z,40.48
2018-02-22T07:26:39.875Z,40.51
2018-02-22T07:27:39.997Z,40.38
2018-02-22T07:28:39.865Z,40.42
2018-02-22T07:29:39.889Z,40.47
2018-02-22T07:30:39.865Z,40.39
2018-02-22T07:31:39.859Z,40.34
2018-02-22T07:32:39.862Z,40.47
2018-02-22T07:33:39.884Z,40.4
2018-02-22T07:34:39.856Z,40.31
2018-02-22T07:35:39.865Z,40.42
2018-02-22T07:36:39.871Z,40.44
2018-02-22T07:37:39.863Z,40.39
2018-02-22T07:38:39.894Z,40.39
2018-02-22T07:39:39.874Z,40.47
2018-02-22T07:40:39.851Z,40.43
2018-02-22T07:41:39.866Z,40.38
2018-02-22T07:42:39.856Z,40.39
2018-02-22T07:43:39.875Z,40.34
2018-02-22T07:44:39.868Z,40.48
2018-02-22T07:45:39.850Z,40.37
2018-02-22T07:46:39.861Z,40.34
2018-02-22T07:47:39.847Z,40.36
2018-02-22T07:48:39.872Z,40.47
2018-02-22T07:49:39.878Z,40.34
2018-02-22T07:50:39.857Z,40.38
2018-02-22T07:51:39.863Z,40.42
2018-02-22T07:52:39.843Z,40.31
2018-02-22T07:53:39.858Z,40.38
2018-02-22T07:54:39.872Z,40.33
2018-02-22T07:55:39.857Z,40.2
2018-02-22T07:56:39.854Z,40.27
2018-02-22T07:57:39.854Z,40.29
2018-02-22T07:58:39.848Z,40.24
2018-02-22T07:59:39.909Z,40.16
2018-02-22T08:00:39.864Z,40.25
2018-02-22T08:01:39.862Z,40.24
2018-02-22T08:02:39.855Z,40.24
2018-02-22T08:03:39.853Z,40.27
2018-02-22T08:04:39.869Z,40.25
2018-02-22T08:05:40.217Z,40.25
2018-02-22T08:06:39.867Z,40.14
2018-02-22T08:07:39.885Z,40.04
2018-02-22T08:08:39.850Z,40.1
2018-02-22T08:09:39.857Z,40.12
2018-02-22T08:10:39.867Z,40.09
2018-02-22T08:11:39.874Z,40.04
2018-02-22T08:12:39.857Z,40
2018-02-22T08:13:39.892Z,40
2018-02-22T08:14:39.837Z,39.97
2018-02-22T08:15:39.837Z,39.96
2018-02-22T08:16:40.029Z,40
2018-02-22T08:17:39.854Z,39.93
2018-02-22T08:18:39.855Z,39.87
2018-02-22T08:19:39.840Z,39.9
2018-02-22T08:20:39.832Z,39.99
2018-02-22T08:21:39.892Z,39.98
2018-02-22T08:22:39.824Z,40.07
2018-02-22T08:23:39.835Z,39.98
2018-02-22T08:24:39.889Z,39.99
2018-02-22T08:25:39.851Z,39.91
2018-02-22T08:26:39.882Z,40.08
2018-02-22T08:27:39.896Z,40.04
2018-02-22T08:28:39.850Z,40.03
2018-02-22T08:29:39.860Z,40.06
2018-02-22T08:30:39.875Z,40.05
2018-02-22T08:31:39.834Z,40.08
2018-02-22T08:32:39.842Z,40.11
2018-02-22T08:33:39.851Z,40.09
2018-02-22T08:34:39.846Z,40.09
2018-02-22T08:35:39.858Z,39.89
2018-02-22T08:36:39.984Z,40.07
2018-02-22T08:37:39.845Z,39.98
2018-02-22T08:38:39.842Z,40.06
2018-02-22T08:39:39.856Z,40.03
2018-02-22T08:40:39.892Z,39.97
2018-02-22T08:41:39.873Z,40.05
2018-02-22T08:42:40.080Z,40.02
2018-02-22T08:43:39.834Z,39.99
2018-02-22T08:44:40.108Z,40.04
2018-02-22T08:45:39.839Z,40.02
2018-02-22T08:46:39.824Z,39.98
2018-02-22T08:47:39.845Z,39.94
2018-02-22T08:48:39.838Z,39.99
2018-02-22T08:49:39.872Z,40.04
2018-02-22T08:50:39.850Z,40.02
2018-02-22T08:51:39.872Z,39.98
2018-02-22T08:52:39.819Z,39.93
2018-02-22T08:53:39.849Z,39.98
2018-02-22T08:54:39.835Z,39.94
2018-02-22T08:55:39.821Z,40.02
2018-02-22T08:56:39.855Z,39.97
2018-02-22T08:57:39.886Z,40
2018-02-22T08:58:39.842Z,39.96
2018-02-22T08:59:39.948Z,39.94
2018-02-22T09:00:39.940Z,40.01
2018-02-22T09:01:39.851Z,39.98
2018-02-22T09:02:39.838Z,40.02
2018-02-22T09:03:39.816Z,39.96
2018-02-22T09:04:39.831Z,39.92
2018-02-22T09:05:39.839Z,39.93
2018-02-22T09:06:39.906Z,39.92
2018-02-22T09:07:39.880Z,39.87
2018-02-22T09:08:39.842Z,39.88
2018-02-22T09:09:39.843Z,40.01
2018-02-22T09:10:39.833Z,39.91
2018-02-22T09:11:39.829Z,39.9
2018-02-22T09:12:39.820Z,39.87
2018-02-22T09:13:39.817Z,39.9
2018-02-22T09:14:39.825Z,39.9
2018-02-22T09:15:40.049Z,39.95
2018-02-22T09:16:39.833Z,39.86
2018-02-22T09:17:39.834Z,39.83
2018-02-22T09:18:39.820Z,39.95
2018-02-22T09:19:39.842Z,39.97
2018-02-22T09:20:39.825Z,39.86
2018-02-22T09:21:39.863Z,39.95
2018-02-22T09:22:39.832Z,39.9
2018-02-22T09:23:39.826Z,39.93
2018-02-22T09:24:39.835Z,39.84
2018-02-22T09:25:39.828Z,39.92
2018-02-22T09:26:39.842Z,39.91
2018-02-22T09:27:39.872Z,39.93
2018-02-22T09:28:39.816Z,39.96
2018-02-22T09:29:39.853Z,39.91
2018-02-22T09:30:39.827Z,39.9
2018-02-22T09:31:39.843Z,39.96
2018-02-22T09:32:39.808Z,39.89
2018-02-22T09:33:39.825Z,39.91
2018-02-22T09:34:39.848Z,39.87
2018-02-22T09:35:39.823Z,40.06
2018-02-22T09:36:39.927Z,39.88
2018-02-22T09:37:39.809Z,39.98
2018-02-22T09:38:39.825Z,39.87
2018-02-22T09:39:39.829Z,39.96
2018-02-22T09:40:39.811Z,39.91
2018-02-22T09:41:39.818Z,39.94
2018-02-22T09:42:39.811Z,39.93
2018-02-22T09:43:39.829Z,39.85
2018-02-22T09:44:39.801Z,39.87
2018-02-22T09:45:39.815Z,39.85
2018-02-22T09:46:39.844Z,39.85
2018-02-22T09:47:39.820Z,39.94
2018-02-22T09:48:39.807Z,39.84
2018-02-22T09:49:39.818Z,39.81
2018-02-22T09:50:39.821Z,39.91
2018-02-22T09:51:39.827Z,39.9
2018-02-22T09:52:39.816Z,39.93
2018-02-22T09:53:39.823Z,39.85
2018-02-22T09:54:39.825Z,39.89
2018-02-22T09:55:39.813Z,39.84
2018-02-22T09:56:39.842Z,39.84
2018-02-22T09:57:39.817Z,39.91
2018-02-22T09:58:39.822Z,39.84
2018-02-22T09:59:39.811Z,39.83
2018-02-22T10:00:39.808Z,39.88
2018-02-22T10:01:39.860Z,39.86
2018-02-22T10:02:39.822Z,39.87
2018-02-22T10:03:39.870Z,39.77
2018-02-22T10:04:39.815Z,39.77
2018-02-22T10:05:39.820Z,39.86
2018-02-22T10:06:39.804Z,39.91
2018-02-22T10:07:40.074Z,39.79
2018-02-22T10:08:39.822Z,39.8
2018-02-22T10:09:39.820Z,39.88
2018-02-22T10:10:39.801Z,39.72
2018-02-22T10:11:39.889Z,39.84
2018-02-22T10:12:39.850Z,39.72
2018-02-22T10:13:39.832Z,39.81
2018-02-22T10:14:39.802Z,39.79
2018-02-22T10:15:39.794Z,39.8
2018-02-22T10:16:39.793Z,39.7
2018-02-22T10:17:39.804Z,39.8
2018-02-22T10:18:39.797Z,39.83
2018-02-22T10:19:39.800Z,39.79
2018-02-22T10:20:39.810Z,39.78
2018-02-22T10:21:39.646Z,39.82
2018-02-22T10:22:39.812Z,39.8
2018-02-22T10:23:39.972Z,39.82
2018-02-22T10:24:39.801Z,39.88
2018-02-22T10:25:39.805Z,39.65
2018-02-22T10:26:39.797Z,39.9
2018-02-22T10:27:39.996Z,39.78
2018-02-22T10:28:39.836Z,39.8
2018-02-22T10:29:39.797Z,39.77
2018-02-22T10:30:39.808Z,39.75
2018-02-22T10:31:39.806Z,39.77
2018-02-22T10:32:39.799Z,39.78
2018-02-22T10:33:39.790Z,39.78
2018-02-22T10:34:39.803Z,39.73
2018-02-22T10:35:39.781Z,39.69
2018-02-22T10:36:39.795Z,39.73
2018-02-22T10:37:39.820Z,39.77
2018-02-22T10:38:39.799Z,39.75
2018-02-22T10:39:39.829Z,39.58
2018-02-22T10:40:39.797Z,39.74
2018-02-22T10:41:39.819Z,39.77
2018-02-22T10:42:39.792Z,39.74
2018-02-22T10:43:39.841Z,39.82
2018-02-22T10:44:39.961Z,39.68
2018-02-22T10:45:39.849Z,39.7
2018-02-22T10:46:39.788Z,39.71
2018-02-22T10:47:39.804Z,39.7
2018-02-22T10:48:39.835Z,39.73
2018-02-22T10:49:39.815Z,39.61
2018-02-22T10:50:39.811Z,39.61
2018-02-22T10:51:39.843Z,39.66
2018-02-22T10:52:39.812Z,39.66
2018-02-22T10:53:39.796Z,39.68
2018-02-22T10:54:39.831Z,39.77
2018-02-22T10:55:39.790Z,39.63
2018-02-22T10:56:39.792Z,39.69
2018-02-22T10:57:39.791Z,39.6
2018-02-22T10:58:39.817Z,39.68
2018-02-22T10:59:39.805Z,39.65
2018-02-22T11:00:39.925Z,39.65
2018-02-22T11:01:39.879Z,39.59
2018-02-22T11:02:39.791Z,39.73
2018-02-22T11:03:39.796Z,39.66
2018-02-22T11:04:39.838Z,39.64
2018-02-22T11:05:39.803Z,39.91
2018-02-22T11:06:39.779Z,39.84
2018-02-22T11:07:39.802Z,38.56
2018-02-22T11:08:39.817Z,38.27
2018-02-22T11:09:39.825Z,37.9
2018-02-22T11:10:39.786Z,37.5
2018-02-22T11:11:39.795Z,38.53
2018-02-22T11:12:39.790Z,38.7
2018-02-22T11:13:39.790Z,38.85
2018-02-22T11:14:39.781Z,38.91
2018-02-22T11:15:39.795Z,38.95
2018-02-22T11:16:39.791Z,38.92
2018-02-22T11:17:39.783Z,39.05
2018-02-22T11:18:39.809Z,39.05
2018-02-22T11:19:39.798Z,39.13
2018-02-22T11:20:39.796Z,39.12
2018-02-22T11:21:39.797Z,39.22
2018-02-22T11:22:39.786Z,39.2
2018-02-22T11:23:39.786Z,39.17
2018-02-22T11:24:39.825Z,39.24
2018-02-22T11:25:39.802Z,39.25
2018-02-22T11:26:39.779Z,39.18
2018-02-22T11:27:39.785Z,39.23
2018-02-22T11:28:39.798Z,39.3
2018-02-22T11:29:39.806Z,39.21
2018-02-22T11:30:39.782Z,39.34
2018-02-22T11:31:39.777Z,39.28
2018-02-22T11:32:39.786Z,39.33
2018-02-22T11:33:39.780Z,39.29
2018-02-22T11:34:39.818Z,39.34
2018-02-22T11:35:39.781Z,39.27
2018-02-22T11:36:39.789Z,39.33
2018-02-22T11:37:39.804Z,39.3
2018-02-22T11:38:40.199Z,39.36
2018-02-22T11:39:39.815Z,39.38
2018-02-22T11:40:39.804Z,39.42
2018-02-22T11:41:39.781Z,39.32
2018-02-22T11:42:39.786Z,39.34
2018-02-22T11:43:39.806Z,39.36
2018-02-22T11:44:39.796Z,39.4
2018-02-22T11:45:39.789Z,39.39
2018-02-22T11:46:39.767Z,39.36
2018-02-22T11:47:39.779Z,39.4
2018-02-22T11:48:39.778Z,39.32
2018-02-22T11:49:39.783Z,39.38
2018-02-22T11:50:39.766Z,39.42
2018-02-22T11:51:39.800Z,39.45
2018-02-22T11:52:39.776Z,39.39
2018-02-22T11:53:39.772Z,39.35
2018-02-22T11:54:39.775Z,39.39
2018-02-22T11:55:39.766Z,39.39
2018-02-22T11:56:39.770Z,39.4
2018-02-22T11:57:39.766Z,39.38
2018-02-22T11:58:39.777Z,39.44
2018-02-22T11:59:39.762Z,39.35
2018-02-22T12:00:39.769Z,39.34
2018-02-22T12:01:39.764Z,39.39
2018-02-22T12:02:39.767Z,39.47
2018-02-22T12:03:39.772Z,39.43
2018-02-22T12:04:39.754Z,39.44
2018-02-22T12:05:39.773Z,39.34
2018-02-22T12:06:39.839Z,39.47
2018-02-22T12:07:39.785Z,39.42
2018-02-22T12:08:39.769Z,39.34
2018-02-22T12:09:40.221Z,39.36
2018-02-22T12:10:39.772Z,39.4
2018-02-22T12:11:39.799Z,39.4
2018-02-22T12:12:39.785Z,39.39
2018-02-22T12:13:39.773Z,39.45
2018-02-22T12:14:39.766Z,39.31
2018-02-22T12:15:39.768Z,39.34
2018-02-22T12:16:39.768Z,39.42
2018-02-22T12:17:39.614Z,39.4
2018-02-22T12:18:39.767Z,39.39
2018-02-22T12:19:39.767Z,39.52
2018-02-22T12:20:39.768Z,39.43
2018-02-22T12:21:39.758Z,39.51
2018-02-22T12:22:39.759Z,39.44
2018-02-22T12:23:39.777Z,39.34
2018-02-22T12:24:39.756Z,39.34
2018-02-22T12:25:39.803Z,39.43
2018-02-22T12:26:39.770Z,39.35
2018-02-22T12:27:39.758Z,39.35
2018-02-22T12:28:39.754Z,39.43
2018-02-22T12:29:39.762Z,39.39
2018-02-22T12:30:39.794Z,39.4
2018-02-22T12:31:39.763Z,39.43
2018-02-22T12:32:39.926Z,39.39
2018-02-22T12:33:39.771Z,39.3
2018-02-22T12:34:39.774Z,39.39
2018-02-22T12:35:39.778Z,39.39
2018-02-22T12:36:39.782Z,39.36
2018-02-22T12:37:39.789Z,39.4
2018-02-22T12:38:39.766Z,39.36
2018-02-22T12:39:39.789Z,39.44
2018-02-22T12:40:39.779Z,39.33
2018-02-22T12:41:39.753Z,39.4
2018-02-22T12:42:39.746Z,39.33
2018-02-22T12:43:39.761Z,39.38
2018-02-22T12:44:39.750Z,39.37
2018-02-22T12:45:39.770Z,39.36
2018-02-22T12:46:39.754Z,39.46
2018-02-22T12:47:39.745Z,39.33
2018-02-22T12:48:39.759Z,39.4
2018-02-22T12:49:40.022Z,39.33
2018-02-22T12:50:39.815Z,39.38
2018-02-22T12:51:39.765Z,39.38
2018-02-22T12:52:39.756Z,39.34
2018-02-22T12:53:39.772Z,39.38
2018-02-22T12:54:39.776Z,39.36
2018-02-22T12:55:39.772Z,39.42
2018-02-22T12:56:39.849Z,39.29